createdAt,value
2022-12-31T00:01:12.003Z,3.97
2022-12-31T00:03:40.909Z,4.01
2022-12-31T00:06:19.230Z,4.04
2022-12-31T00:08:47.800Z,4.09
2022-12-31T00:11:16.790Z,4.20
2022-12-31T00:13:46.544Z,4.28
2022-12-31T00:16:17.154Z,4.37
2022-12-31T00:18:46.050Z,4.41
2022-12-31T00:21:16.553Z,4.47
2022-12-31T00:23:44.877Z,4.48
2022-12-31T00:26:15.462Z,4.55
2022-12-31T00:28:44.383Z,4.53
2022-12-31T00:31:14.502Z,4.65
2022-12-31T00:33:42.795Z,4.74
2022-12-31T00:36:12.733Z,4.75
2022-12-31T00:38:45.113Z,4.80
2022-12-31T00:41:13.648Z,4.85
2022-12-31T00:43:41.460Z,4.91
2022-12-31T00:46:10.270Z,4.93
2022-12-31T00:48:38.575Z,5.01
2022-12-31T00:51:09.223Z,5.05
2022-12-31T00:53:37.616Z,5.09
2022-12-31T00:56:13.327Z,5.13
2022-12-31T00:58:42.064Z,5.13
2022-12-31T01:01:11.583Z,5.19
2022-12-31T01:03:40.044Z,5.24
2022-12-31T01:06:09.040Z,5.26
2022-12-31T01:08:37.332Z,5.20
2022-12-31T01:11:23.197Z,5.32
2022-12-31T01:13:54.319Z,5.31
2022-12-31T01:16:24.575Z,5.32
2022-12-31T01:18:53.178Z,5.35
2022-12-31T01:21:22.282Z,5.36
2022-12-31T01:23:50.616Z,5.35
2022-12-31T01:26:20.596Z,5.31
2022-12-31T01:28:48.842Z,5.35
2022-12-31T01:31:20.048Z,5.39
2022-12-31T01:33:48.165Z,5.39
2022-12-31T01:36:23.591Z,5.41
2022-12-31T01:38:53.852Z,5.42
2022-12-31T01:41:25.053Z,5.44
2022-12-31T01:43:55.277Z,5.45
2022-12-31T01:46:29.667Z,5.42
2022-12-31T01:49:00.980Z,5.47
2022-12-31T01:51:34.531Z,5.49
2022-12-31T01:54:05.799Z,5.56
2022-12-31T01:56:37.181Z,5.55
2022-12-31T01:59:09.682Z,5.59
2022-12-31T02:01:39.079Z,5.62
2022-12-31T02:04:09.872Z,5.63
2022-12-31T02:06:41.295Z,5.62
2022-12-31T02:09:10.021Z,5.67
2022-12-31T02:11:39.427Z,5.70
2022-12-31T02:14:10.878Z,5.73
2022-12-31T02:16:46.786Z,5.71
2022-12-31T02:19:39.664Z,5.73
2022-12-31T02:22:21.163Z,5.63
2022-12-31T02:25:07.140Z,5.60
2022-12-31T02:27:52.458Z,5.68
2022-12-31T02:30:24.908Z,5.66
2022-12-31T02:33:04.566Z,5.59
2022-12-31T02:35:34.845Z,5.50
2022-12-31T02:38:06.832Z,5.41
2022-12-31T02:40:36.486Z,5.22
2022-12-31T02:43:04.470Z,5.24
2022-12-31T02:45:38.140Z,5.17
2022-12-31T02:48:20.365Z,5.10
2022-12-31T02:50:56.533Z,5.03
2022-12-31T02:53:42.747Z,4.99
2022-12-31T02:56:17.577Z,5.03
2022-12-31T02:59:11.758Z,4.98
2022-12-31T03:02:03.000Z,4.98
2022-12-31T03:04:35.801Z,4.92
2022-12-31T03:07:06.428Z,4.93
2022-12-31T03:09:34.753Z,4.89
2022-12-31T03:12:21.294Z,4.89
2022-12-31T03:14:49.199Z,4.88
2022-12-31T03:17:18.479Z,4.86
2022-12-31T03:20:03.805Z,4.90
2022-12-31T03:22:31.820Z,4.83
2022-12-31T03:25:19.937Z,4.84
2022-12-31T03:27:48.459Z,4.84
2022-12-31T03:30:18.754Z,4.83
2022-12-31T03:32:49.278Z,4.88
2022-12-31T03:35:19.250Z,4.85
2022-12-31T03:37:47.690Z,4.85
2022-12-31T03:40:16.843Z,4.90
2022-12-31T03:42:44.642Z,4.90
2022-12-31T03:45:13.489Z,4.91
2022-12-31T03:47:41.863Z,4.83
2022-12-31T03:50:14.279Z,4.95
2022-12-31T03:52:42.372Z,4.95
2022-12-31T03:55:11.675Z,4.94
2022-12-31T03:57:40.522Z,4.97
2022-12-31T04:00:11.093Z,5.02
2022-12-31T04:02:38.954Z,5.01
2022-12-31T04:05:07.756Z,5.04
2022-12-31T04:07:37.054Z,5.07
2022-12-31T04:10:05.483Z,5.05
2022-12-31T04:12:33.697Z,5.07
2022-12-31T04:15:01.463Z,5.05
2022-12-31T04:17:29.418Z,5.07
2022-12-31T04:19:57.171Z,5.09
2022-12-31T04:22:25.142Z,5.14
2022-12-31T04:24:54.310Z,5.13
2022-12-31T04:27:22.023Z,5.18
2022-12-31T04:29:50.082Z,5.18
2022-12-31T04:32:17.912Z,5.19
2022-12-31T04:34:45.886Z,5.11
2022-12-31T04:37:13.728Z,5.19
2022-12-31T04:39:41.494Z,5.25
2022-12-31T04:42:10.601Z,5.10
2022-12-31T04:44:38.363Z,5.23
2022-12-31T04:47:06.188Z,5.25
2022-12-31T04:49:33.988Z,5.23
2022-12-31T04:52:01.773Z,5.23
2022-12-31T04:54:29.604Z,5.25
2022-12-31T04:56:57.350Z,5.25
2022-12-31T04:59:26.766Z,5.27
2022-12-31T05:01:54.951Z,5.29
2022-12-31T05:04:22.737Z,5.32
2022-12-31T05:06:50.571Z,5.32
2022-12-31T05:09:18.598Z,5.33
2022-12-31T05:11:46.458Z,5.38
2022-12-31T05:14:14.558Z,5.39
2022-12-31T05:16:43.664Z,5.35
2022-12-31T05:19:11.611Z,5.40
2022-12-31T05:21:39.608Z,5.41
2022-12-31T05:24:08.297Z,5.37
2022-12-31T05:26:36.368Z,5.31
2022-12-31T05:29:04.286Z,5.29
2022-12-31T05:31:32.025Z,5.21
2022-12-31T05:34:01.148Z,5.21
2022-12-31T05:36:28.938Z,5.16
2022-12-31T05:38:57.662Z,5.15
2022-12-31T05:41:25.530Z,5.14
2022-12-31T05:43:53.373Z,5.14
2022-12-31T05:46:21.164Z,5.13
2022-12-31T05:48:48.893Z,5.13
2022-12-31T05:51:18.069Z,5.11
2022-12-31T05:53:46.808Z,5.11
2022-12-31T05:56:14.830Z,5.12
2022-12-31T05:58:42.671Z,5.18
2022-12-31T06:01:10.434Z,5.28
2022-12-31T06:03:38.274Z,5.32
2022-12-31T06:06:06.851Z,5.35
2022-12-31T06:08:36.047Z,5.40
2022-12-31T06:11:03.809Z,5.41
2022-12-31T06:13:31.710Z,5.42
2022-12-31T06:15:59.551Z,5.42
2022-12-31T06:18:27.634Z,5.40
2022-12-31T06:20:55.377Z,5.39
2022-12-31T06:23:23.103Z,5.44
2022-12-31T06:25:52.200Z,5.49
2022-12-31T06:28:20.684Z,5.51
2022-12-31T06:30:49.354Z,5.52
2022-12-31T06:33:17.158Z,5.50
2022-12-31T06:35:44.937Z,5.49
2022-12-31T06:38:12.679Z,5.45
2022-12-31T06:40:40.407Z,5.39
2022-12-31T06:43:09.525Z,5.40
2022-12-31T06:45:37.281Z,5.41
2022-12-31T06:48:05.557Z,5.33
2022-12-31T06:50:33.430Z,5.40
2022-12-31T06:53:01.237Z,5.39
2022-12-31T06:55:29.525Z,5.42
2022-12-31T06:57:57.913Z,5.47
2022-12-31T07:00:27.663Z,5.51
2022-12-31T07:03:11.630Z,5.50
2022-12-31T07:05:46.912Z,5.54
2022-12-31T07:08:31.324Z,5.59
2022-12-31T07:11:07.006Z,5.55
2022-12-31T07:14:07.427Z,5.52
2022-12-31T07:16:49.801Z,5.53
2022-12-31T07:19:29.921Z,5.48
2022-12-31T07:21:59.988Z,5.45
2022-12-31T07:24:28.681Z,5.39
2022-12-31T07:27:10.415Z,5.35
2022-12-31T07:29:55.186Z,5.36
2022-12-31T07:32:36.569Z,5.34
2022-12-31T07:35:16.197Z,5.37
2022-12-31T07:37:52.804Z,5.37
2022-12-31T07:40:31.134Z,5.37
2022-12-31T07:43:09.791Z,5.39
2022-12-31T07:45:47.533Z,5.43
2022-12-31T07:48:24.774Z,5.47
2022-12-31T07:50:54.827Z,5.45
2022-12-31T07:53:23.334Z,5.49
2022-12-31T07:55:55.702Z,5.49
2022-12-31T07:58:27.136Z,5.24
2022-12-31T08:00:59.161Z,5.42
2022-12-31T08:03:48.803Z,5.41
2022-12-31T08:06:24.009Z,5.47
2022-12-31T08:08:58.360Z,5.51
2022-12-31T08:11:33.733Z,5.56
2022-12-31T08:14:03.157Z,5.46
2022-12-31T08:16:31.454Z,5.57
2022-12-31T08:19:01.178Z,5.59
2022-12-31T08:21:41.475Z,5.60
2022-12-31T08:24:25.379Z,5.68
2022-12-31T08:27:01.754Z,5.70
2022-12-31T08:29:37.152Z,5.75
2022-12-31T08:32:13.712Z,5.77
2022-12-31T08:34:55.841Z,5.71
2022-12-31T08:37:30.054Z,5.62
2022-12-31T08:40:14.800Z,5.67
2022-12-31T08:42:57.935Z,5.68
2022-12-31T08:45:30.417Z,5.57
2022-12-31T08:48:05.583Z,5.67
2022-12-31T08:50:35.466Z,5.70
2022-12-31T08:53:03.971Z,5.69
2022-12-31T08:55:32.414Z,5.74
2022-12-31T08:58:13.437Z,5.76
2022-12-31T09:00:42.776Z,5.63
2022-12-31T09:03:31.061Z,5.77
2022-12-31T09:06:10.854Z,5.77
2022-12-31T09:08:47.544Z,5.76
2022-12-31T09:11:23.177Z,5.79
2022-12-31T09:14:20.676Z,5.79
2022-12-31T09:16:58.270Z,5.62
2022-12-31T09:19:26.127Z,5.85
2022-12-31T09:21:56.126Z,5.89
2022-12-31T09:24:24.536Z,5.89
2022-12-31T09:27:05.281Z,5.85
2022-12-31T09:29:50.361Z,5.84
2022-12-31T09:32:27.008Z,5.78
2022-12-31T09:34:57.632Z,5.80
2022-12-31T09:37:39.562Z,5.73
2022-12-31T09:40:33.216Z,5.73
2022-12-31T09:43:31.000Z,5.72
2022-12-31T09:46:28.716Z,5.72
2022-12-31T09:49:31.899Z,5.74
2022-12-31T09:52:14.803Z,5.75
2022-12-31T09:54:53.442Z,5.82
2022-12-31T09:57:31.208Z,5.83
2022-12-31T10:00:04.259Z,5.96
2022-12-31T10:02:59.988Z,6.01
2022-12-31T10:05:57.151Z,6.07
2022-12-31T10:08:42.606Z,6.08
2022-12-31T10:11:20.761Z,6.13
2022-12-31T10:14:01.369Z,6.16
2022-12-31T10:16:54.174Z,6.12
2022-12-31T10:19:46.899Z,6.12
2022-12-31T10:22:39.285Z,6.14
2022-12-31T10:25:38.558Z,6.14
2022-12-31T10:28:19.337Z,6.10
2022-12-31T10:30:56.104Z,6.11
2022-12-31T10:33:40.311Z,6.13
2022-12-31T10:36:16.629Z,6.21
2022-12-31T10:38:56.457Z,6.26
2022-12-31T10:42:01.784Z,6.30
2022-12-31T10:44:55.250Z,6.32
2022-12-31T10:48:06.384Z,6.34
2022-12-31T10:51:03.924Z,6.40
2022-12-31T10:53:54.543Z,6.42
2022-12-31T10:56:58.541Z,6.43
2022-12-31T10:59:54.863Z,6.48
2022-12-31T11:02:51.611Z,6.56
2022-12-31T11:06:00.664Z,6.61
2022-12-31T11:08:53.118Z,6.60
2022-12-31T11:11:32.827Z,6.57
2022-12-31T11:14:27.213Z,6.57
2022-12-31T11:17:13.514Z,6.56
2022-12-31T11:19:51.374Z,6.56
2022-12-31T11:22:37.361Z,6.56
2022-12-31T11:25:31.365Z,6.58
2022-12-31T11:28:11.699Z,6.56
2022-12-31T11:30:50.121Z,6.55
2022-12-31T11:33:34.952Z,6.53
2022-12-31T11:36:16.717Z,6.54
2022-12-31T11:38:51.665Z,6.53
2022-12-31T11:41:29.282Z,6.48
2022-12-31T11:44:04.043Z,6.45
2022-12-31T11:46:59.483Z,6.50
2022-12-31T11:50:02.382Z,6.48
2022-12-31T11:52:54.912Z,6.48
2022-12-31T11:55:42.510Z,6.55
2022-12-31T11:58:16.038Z,6.51
2022-12-31T12:00:53.169Z,6.56
2022-12-31T12:03:21.224Z,6.63
2022-12-31T12:05:50.378Z,6.68
2022-12-31T12:08:18.840Z,6.71
2022-12-31T12:10:49.068Z,6.74
2022-12-31T12:13:24.763Z,6.78
2022-12-31T12:15:55.461Z,6.87
2022-12-31T12:18:30.070Z,6.87
2022-12-31T12:21:10.527Z,6.87
2022-12-31T12:23:39.278Z,6.88
2022-12-31T12:26:08.725Z,6.88
2022-12-31T12:28:45.512Z,6.85
2022-12-31T12:31:22.414Z,6.79
2022-12-31T12:33:51.881Z,6.77
2022-12-31T12:36:22.007Z,6.79
2022-12-31T12:38:50.348Z,6.76
2022-12-31T12:41:25.376Z,6.80
2022-12-31T12:44:04.154Z,6.79
2022-12-31T12:46:34.534Z,6.77
2022-12-31T12:49:05.104Z,6.82
2022-12-31T12:51:51.926Z,6.84
2022-12-31T12:54:33.650Z,6.86
2022-12-31T12:57:10.506Z,6.94
2022-12-31T13:00:01.757Z,6.98
2022-12-31T13:02:48.761Z,6.97
2022-12-31T13:05:28.583Z,6.98
2022-12-31T13:08:10.812Z,7.00
2022-12-31T13:10:51.180Z,7.03
2022-12-31T13:13:29.912Z,6.99
2022-12-31T13:16:07.819Z,6.96
2022-12-31T13:18:50.922Z,6.87
2022-12-31T13:21:38.603Z,6.81
2022-12-31T13:24:19.548Z,6.79
2022-12-31T13:26:54.614Z,6.76
2022-12-31T13:29:27.476Z,6.64
2022-12-31T13:31:57.822Z,6.64
2022-12-31T13:34:30.182Z,6.63
2022-12-31T13:37:03.272Z,6.53
2022-12-31T13:39:38.265Z,6.59
2022-12-31T13:42:14.155Z,6.51
2022-12-31T13:44:49.100Z,6.56
2022-12-31T13:47:22.895Z,6.46
2022-12-31T13:49:57.733Z,6.47
2022-12-31T13:52:31.801Z,6.42
2022-12-31T13:55:10.627Z,6.41
2022-12-31T13:57:44.156Z,6.45
2022-12-31T14:00:21.746Z,6.36
2022-12-31T14:02:59.611Z,6.41
2022-12-31T14:05:33.875Z,6.36
2022-12-31T14:08:03.806Z,6.32
2022-12-31T14:10:42.780Z,6.34
2022-12-31T14:13:34.181Z,6.31
2022-12-31T14:16:12.756Z,6.28
2022-12-31T14:18:46.949Z,6.23
2022-12-31T14:21:22.586Z,6.17
2022-12-31T14:23:58.257Z,6.16
2022-12-31T14:26:32.280Z,6.18
2022-12-31T14:29:08.393Z,6.20
2022-12-31T14:31:54.298Z,6.20
2022-12-31T14:34:31.585Z,6.19
2022-12-31T14:37:05.273Z,6.19
2022-12-31T14:39:46.093Z,6.19
2022-12-31T14:42:24.553Z,6.24
2022-12-31T14:45:06.231Z,6.24
2022-12-31T14:47:45.624Z,6.13
2022-12-31T14:50:17.401Z,6.15
2022-12-31T14:52:51.135Z,6.11
2022-12-31T14:55:28.101Z,6.12
2022-12-31T15:00:54.967Z,6.11
2022-12-31T15:03:34.848Z,6.05
2022-12-31T15:06:42.549Z,6.11
2022-12-31T15:09:21.507Z,6.18
2022-12-31T15:12:22.124Z,6.16
2022-12-31T15:15:24.970Z,6.18
2022-12-31T15:18:08.901Z,6.16
2022-12-31T15:20:52.444Z,6.20
2022-12-31T15:23:23.772Z,6.16
2022-12-31T15:25:58.237Z,6.14
2022-12-31T15:28:32.484Z,6.10
2022-12-31T15:31:06.653Z,6.08
2022-12-31T15:33:38.806Z,6.11
2022-12-31T15:36:16.310Z,6.01
2022-12-31T15:38:45.082Z,6.17
2022-12-31T15:41:38.153Z,6.18
2022-12-31T15:44:14.548Z,6.18
2022-12-31T15:46:44.318Z,6.13
2022-12-31T15:49:16.607Z,6.08
2022-12-31T15:51:48.467Z,6.13
2022-12-31T15:54:24.997Z,6.14
2022-12-31T15:56:54.191Z,6.13
2022-12-31T15:59:23.928Z,6.12
2022-12-31T16:01:55.554Z,6.13
2022-12-31T16:04:26.595Z,6.15
2022-12-31T16:06:54.781Z,6.14
2022-12-31T16:09:26.284Z,6.13
2022-12-31T16:11:56.077Z,6.18
2022-12-31T16:14:26.777Z,6.24
2022-12-31T16:16:58.564Z,6.24
2022-12-31T16:19:35.676Z,6.32
2022-12-31T16:22:10.145Z,6.38
2022-12-31T16:25:02.903Z,6.42
2022-12-31T16:27:28.463Z,6.47
2022-12-31T16:30:00.899Z,6.49
2022-12-31T16:32:38.758Z,6.47
2022-12-31T16:35:23.849Z,6.49
2022-12-31T16:38:02.434Z,6.47
2022-12-31T16:40:30.788Z,6.49
2022-12-31T16:42:58.646Z,6.53
2022-12-31T16:45:33.064Z,6.54
2022-12-31T16:48:14.532Z,6.56
2022-12-31T16:50:46.125Z,6.60
2022-12-31T16:53:17.845Z,6.61
2022-12-31T16:55:53.027Z,6.69
2022-12-31T16:58:26.209Z,6.72
2022-12-31T17:00:55.715Z,6.72
2022-12-31T17:03:26.881Z,6.70
2022-12-31T17:05:58.543Z,6.64
2022-12-31T17:08:29.147Z,6.69
2022-12-31T17:10:57.481Z,6.67
2022-12-31T17:13:32.096Z,6.74
2022-12-31T17:16:01.021Z,6.75
2022-12-31T17:18:38.129Z,6.70
2022-12-31T17:21:09.880Z,6.69
2022-12-31T17:23:39.839Z,6.70
2022-12-31T17:26:12.036Z,6.69
2022-12-31T17:28:44.874Z,6.70
2022-12-31T17:31:35.876Z,6.66
2022-12-31T17:34:23.786Z,6.60
2022-12-31T17:37:01.063Z,6.60
2022-12-31T17:39:42.471Z,6.62
2022-12-31T17:42:11.763Z,6.63
2022-12-31T17:44:41.832Z,6.60
2022-12-31T17:47:14.029Z,6.60
2022-12-31T17:49:46.700Z,6.60
2022-12-31T17:52:17.119Z,6.60
2022-12-31T17:54:44.933Z,6.60
2022-12-31T17:57:24.589Z,6.53
2022-12-31T17:59:52.649Z,6.60
2022-12-31T18:02:20.746Z,6.58
2022-12-31T18:04:50.024Z,6.62
2022-12-31T18:07:17.749Z,6.63
2022-12-31T18:09:46.214Z,6.58
2022-12-31T18:12:15.741Z,6.56
2022-12-31T18:14:46.593Z,6.56
2022-12-31T18:17:16.574Z,6.57
2022-12-31T18:22:33.528Z,6.59
2022-12-31T18:25:01.654Z,6.53
2022-12-31T18:27:30.646Z,6.51
2022-12-31T18:30:04.467Z,6.53
2022-12-31T18:32:33.999Z,6.54
2022-12-31T18:35:02.046Z,6.58
2022-12-31T18:37:30.317Z,6.56
2022-12-31T18:39:59.397Z,6.48
2022-12-31T18:42:28.840Z,6.42
2022-12-31T18:44:56.840Z,6.47
2022-12-31T18:47:24.546Z,6.47
2022-12-31T18:49:52.495Z,6.43
2022-12-31T18:52:23.417Z,6.43
2022-12-31T18:54:51.124Z,6.43
2022-12-31T18:57:20.703Z,6.38
2022-12-31T18:59:48.494Z,6.38
2022-12-31T19:02:19.530Z,6.29
2022-12-31T19:04:47.353Z,6.25
2022-12-31T19:07:15.193Z,6.19
2022-12-31T19:09:45.657Z,6.18
2022-12-31T19:12:15.352Z,6.08
2022-12-31T19:14:45.521Z,5.97
2022-12-31T19:17:13.339Z,5.99
2022-12-31T19:19:41.143Z,5.94
2022-12-31T19:22:14.490Z,5.95
2022-12-31T19:24:42.313Z,5.95
2022-12-31T19:27:11.224Z,5.91
2022-12-31T19:29:39.003Z,5.92
2022-12-31T19:32:10.005Z,5.85
2022-12-31T19:34:37.810Z,5.82
2022-12-31T19:37:05.629Z,5.81
2022-12-31T19:39:33.404Z,5.84
2022-12-31T19:42:01.795Z,5.77
2022-12-31T19:44:29.592Z,5.67
2022-12-31T19:46:57.439Z,5.67
2022-12-31T19:49:26.543Z,5.54
2022-12-31T19:51:54.888Z,5.43
2022-12-31T19:54:22.736Z,5.25
2022-12-31T19:56:50.500Z,5.32
2022-12-31T19:59:18.233Z,5.36
2022-12-31T20:01:46.347Z,5.33
2022-12-31T20:04:14.587Z,5.28
2022-12-31T20:06:43.662Z,5.34
2022-12-31T20:09:12.279Z,5.20
2022-12-31T20:11:40.265Z,5.27
2022-12-31T20:14:07.960Z,5.24
2022-12-31T20:16:35.752Z,5.10
2022-12-31T20:19:03.543Z,4.93
2022-12-31T20:21:31.277Z,4.80
2022-12-31T20:24:00.650Z,4.83
2022-12-31T20:26:28.389Z,4.76
2022-12-31T20:28:56.187Z,4.77
2022-12-31T20:31:26.036Z,4.87
2022-12-31T20:33:54.940Z,4.85
2022-12-31T20:36:24.054Z,4.73
2022-12-31T20:38:52.209Z,4.72
2022-12-31T20:41:23.615Z,4.73
2022-12-31T20:43:51.757Z,4.72
2022-12-31T20:46:21.535Z,4.67
2022-12-31T20:48:51.287Z,4.70
2022-12-31T20:51:20.218Z,4.77
2022-12-31T20:53:49.076Z,4.73
2022-12-31T20:56:18.284Z,4.57
2022-12-31T20:58:47.827Z,4.47
2022-12-31T21:01:17.109Z,4.43
2022-12-31T21:06:35.715Z,4.20
2022-12-31T21:09:06.119Z,4.15
2022-12-31T21:11:51.365Z,4.05
2022-12-31T21:14:20.947Z,3.90
2022-12-31T21:16:48.937Z,3.77
2022-12-31T21:19:16.729Z,3.71
2022-12-31T21:21:44.465Z,3.83
2022-12-31T21:24:12.874Z,3.98
2022-12-31T21:26:40.660Z,3.94
2022-12-31T21:29:08.374Z,3.85
2022-12-31T21:31:37.445Z,3.69
2022-12-31T21:34:07.618Z,3.72
2022-12-31T21:36:35.372Z,3.77
2022-12-31T21:39:03.278Z,3.86
2022-12-31T21:41:48.427Z,3.84
2022-12-31T21:44:16.197Z,3.82
2022-12-31T21:47:16.044Z,3.86
2022-12-31T21:49:33.133Z,3.88
2022-12-31T21:52:18.855Z,3.76
2022-12-31T21:55:03.894Z,3.72
2022-12-31T21:57:46.233Z,3.55
2022-12-31T22:00:42.640Z,3.60
2022-12-31T22:03:27.804Z,3.52
2022-12-31T22:05:59.506Z,3.43
2022-12-31T22:08:28.494Z,3.44
2022-12-31T22:10:56.290Z,3.44
2022-12-31T22:13:24.440Z,3.43
2022-12-31T22:16:00.276Z,3.30
2022-12-31T22:18:35.633Z,3.19
2022-12-31T22:21:05.770Z,3.14
2022-12-31T22:23:35.122Z,3.05
2022-12-31T22:26:04.119Z,3.06
2022-12-31T22:28:40.328Z,3.06
2022-12-31T22:31:09.080Z,3.10
2022-12-31T22:33:38.485Z,3.11
2022-12-31T22:36:08.395Z,3.16
2022-12-31T22:38:36.270Z,3.11
2022-12-31T22:41:09.491Z,3.06
2022-12-31T22:43:39.514Z,2.90
2022-12-31T22:46:11.960Z,2.80
2022-12-31T22:48:41.897Z,2.52
2022-12-31T22:51:10.989Z,2.48
2022-12-31T22:53:39.694Z,2.37
2022-12-31T22:56:08.572Z,2.44
2022-12-31T22:58:36.368Z,2.52
2022-12-31T23:01:06.797Z,2.65
2022-12-31T23:03:34.770Z,2.70
2022-12-31T23:06:04.263Z,2.74
2022-12-31T23:08:32.273Z,2.68
2022-12-31T23:11:05.654Z,2.67
2022-12-31T23:13:56.956Z,2.66
2022-12-31T23:16:43.046Z,2.63
2022-12-31T23:19:29.308Z,2.46
2022-12-31T23:22:15.947Z,2.41
2022-12-31T23:24:44.075Z,2.44
2022-12-31T23:27:15.226Z,2.62
2022-12-31T23:29:47.067Z,2.65
2022-12-31T23:32:15.827Z,2.63
2022-12-31T23:34:44.583Z,2.56
2022-12-31T23:37:14.255Z,2.30
2022-12-31T23:39:42.685Z,2.27
2022-12-31T23:42:10.464Z,2.17
2022-12-31T23:44:38.335Z,2.13
2022-12-31T23:47:06.339Z,2.11
2022-12-31T23:49:34.097Z,1.96
2022-12-31T23:52:02.076Z,1.63
2022-12-31T23:54:31.215Z,1.90
2022-12-31T23:56:59.156Z,1.85
2022-12-31T23:59:26.963Z,1.77
